sensor_id;sensor_type;location;lat;lon;timestamp;pressure;altitude;pressure_sealevel;temperature;humidity
19795;BME280;10057;59.402;17.866;2022-12-05T00:01:13;103176.69;;;-1.09;82.11
19795;BME280;10057;59.402;17.866;2022-12-05T00:03:40;103177.31;;;-1.13;82.50
19795;BME280;10057;59.402;17.866;2022-12-05T00:06:07;103180.81;;;-1.13;82.49
19795;BME280;10057;59.402;17.866;2022-12-05T00:08:34;103178.31;;;-1.11;81.93
19795;BME280;10057;59.402;17.866;2022-12-05T00:11:01;103173.31;;;-1.07;82.10
19795;BME280;10057;59.402;17.866;2022-12-05T00:13:27;103176.00;;;-1.05;82.29
19795;BME280;10057;59.402;17.866;2022-12-05T00:15:54;103174.28;;;-1.05;82.37
19795;BME280;10057;59.402;17.866;2022-12-05T00:18:21;103172.63;;;-1.03;82.49
19795;BME280;10057;59.402;17.866;2022-12-05T00:20:48;103170.97;;;-1.02;82.26
19795;BME280;10057;59.402;17.866;2022-12-05T00:23:14;103168.25;;;-1.04;82.08
19795;BME280;10057;59.402;17.866;2022-12-05T00:25:41;103169.09;;;-1.05;82.09
19795;BME280;10057;59.402;17.866;2022-12-05T00:28:08;103170.66;;;-1.08;82.23
19795;BME280;10057;59.402;17.866;2022-12-05T00:30:34;103170.56;;;-1.10;82.25
19795;BME280;10057;59.402;17.866;2022-12-05T00:33:01;103163.56;;;-1.11;82.17
19795;BME280;10057;59.402;17.866;2022-12-05T00:35:27;103166.16;;;-1.11;82.10
19795;BME280;10057;59.402;17.866;2022-12-05T00:37:54;103168.72;;;-1.12;81.83
19795;BME280;10057;59.402;17.866;2022-12-05T00:40:21;103156.44;;;-1.15;82.34
19795;BME280;10057;59.402;17.866;2022-12-05T00:42:47;103163.41;;;-1.14;82.27
19795;BME280;10057;59.402;17.866;2022-12-05T00:45:17;103153.81;;;-1.15;82.03
19795;BME280;10057;59.402;17.866;2022-12-05T00:47:44;103159.09;;;-1.13;82.52
19795;BME280;10057;59.402;17.866;2022-12-05T00:50:11;103158.34;;;-1.11;82.23
19795;BME280;10057;59.402;17.866;2022-12-05T00:52:37;103147.94;;;-1.11;82.61
19795;BME280;10057;59.402;17.866;2022-12-05T00:55:04;103146.00;;;-1.15;82.14
19795;BME280;10057;59.402;17.866;2022-12-05T00:57:31;103151.22;;;-1.15;82.33
19795;BME280;10057;59.402;17.866;2022-12-05T00:59:58;103147.78;;;-1.14;82.15
19795;BME280;10057;59.402;17.866;2022-12-05T01:02:25;103152.09;;;-1.14;82.49
19795;BME280;10057;59.402;17.866;2022-12-05T01:04:51;103150.22;;;-1.17;82.34
19795;BME280;10057;59.402;17.866;2022-12-05T01:07:18;103151.00;;;-1.20;82.34
19795;BME280;10057;59.402;17.866;2022-12-05T01:09:45;103152.53;;;-1.23;82.30
19795;BME280;10057;59.402;17.866;2022-12-05T01:12:11;103148.25;;;-1.23;82.18
19795;BME280;10057;59.402;17.866;2022-12-05T01:14:38;103153.44;;;-1.23;82.23
19795;BME280;10057;59.402;17.866;2022-12-05T01:17:04;103150.75;;;-1.24;82.40
19795;BME280;10057;59.402;17.866;2022-12-05T01:19:32;103147.31;;;-1.23;82.64
19795;BME280;10057;59.402;17.866;2022-12-05T01:21:59;103147.31;;;-1.23;82.23
19795;BME280;10057;59.402;17.866;2022-12-05T01:24:27;103156.94;;;-1.22;82.18
19795;BME280;10057;59.402;17.866;2022-12-05T01:26:54;103150.16;;;-1.18;82.61
19795;BME280;10057;59.402;17.866;2022-12-05T01:29:22;103154.66;;;-1.16;82.58
19795;BME280;10057;59.402;17.866;2022-12-05T01:31:50;103154.72;;;-1.14;82.64
19795;BME280;10057;59.402;17.866;2022-12-05T01:34:17;103150.31;;;-1.15;82.15
19795;BME280;10057;59.402;17.866;2022-12-05T01:36:45;103143.47;;;-1.13;82.20
19795;BME280;10057;59.402;17.866;2022-12-05T01:39:13;103137.28;;;-1.15;82.32
19795;BME280;10057;59.402;17.866;2022-12-05T01:41:45;103134.69;;;-1.15;82.25
19795;BME280;10057;59.402;17.866;2022-12-05T01:46:48;103135.56;;;-1.15;82.60
19795;BME280;10057;59.402;17.866;2022-12-05T01:49:22;103124.28;;;-1.15;82.14
19795;BME280;10057;59.402;17.866;2022-12-05T01:51:54;103118.28;;;-1.13;82.56
19795;BME280;10057;59.402;17.866;2022-12-05T01:54:22;103114.88;;;-1.12;82.42
19795;BME280;10057;59.402;17.866;2022-12-05T01:56:54;103118.53;;;-1.08;82.68
19795;BME280;10057;59.402;17.866;2022-12-05T01:59:22;103116.09;;;-1.05;82.31
19795;BME280;10057;59.402;17.866;2022-12-05T02:01:49;103107.28;;;-1.07;82.23
19795;BME280;10057;59.402;17.866;2022-12-05T02:04:16;103117.69;;;-1.07;82.55
19795;BME280;10057;59.402;17.866;2022-12-05T02:06:43;103116.00;;;-1.07;82.19
19795;BME280;10057;59.402;17.866;2022-12-05T02:09:10;103111.75;;;-1.05;82.39
19795;BME280;10057;59.402;17.866;2022-12-05T02:11:48;103108.47;;;-1.01;82.41
19795;BME280;10057;59.402;17.866;2022-12-05T02:17:09;103110.25;;;-1.00;82.41
19795;BME280;10057;59.402;17.866;2022-12-05T02:20:20;103105.88;;;-1.01;82.25
19795;BME280;10057;59.402;17.866;2022-12-05T02:31:17;103105.03;;;-1.00;82.35
19795;BME280;10057;59.402;17.866;2022-12-05T02:33:51;103108.78;;;-0.94;82.40
19795;BME280;10057;59.402;17.866;2022-12-05T02:36:39;103104.50;;;-0.92;82.16
19795;BME280;10057;59.402;17.866;2022-12-05T02:39:17;103107.19;;;-0.91;82.46
19795;BME280;10057;59.402;17.866;2022-12-05T02:42:04;103109.06;;;-0.88;82.29
19795;BME280;10057;59.402;17.866;2022-12-05T02:44:43;103100.28;;;-0.90;82.25
19795;BME280;10057;59.402;17.866;2022-12-05T02:47:11;103102.97;;;-0.89;82.58
19795;BME280;10057;59.402;17.866;2022-12-05T02:49:40;103099.44;;;-0.89;82.56
19795;BME280;10057;59.402;17.866;2022-12-05T02:52:11;103099.44;;;-0.89;82.30
19795;BME280;10057;59.402;17.866;2022-12-05T02:54:41;103102.19;;;-0.86;82.52
19795;BME280;10057;59.402;17.866;2022-12-05T02:57:09;103092.75;;;-0.84;82.15
19795;BME280;10057;59.402;17.866;2022-12-05T02:59:36;103089.84;;;-0.90;82.00
19795;BME280;10057;59.402;17.866;2022-12-05T03:02:03;103086.25;;;-0.92;82.35
19795;BME280;10057;59.402;17.866;2022-12-05T03:04:30;103079.41;;;-0.90;82.23
19795;BME280;10057;59.402;17.866;2022-12-05T03:07:09;103075.09;;;-0.90;82.34
19795;BME280;10057;59.402;17.866;2022-12-05T03:09:51;103084.78;;;-0.87;82.46
19795;BME280;10057;59.402;17.866;2022-12-05T03:12:34;103075.25;;;-0.87;82.54
19795;BME280;10057;59.402;17.866;2022-12-05T03:15:05;103075.25;;;-0.87;82.08
19795;BME280;10057;59.402;17.866;2022-12-05T03:17:39;103072.56;;;-0.88;82.47
19795;BME280;10057;59.402;17.866;2022-12-05T03:20:27;103075.19;;;-0.88;82.28
19795;BME280;10057;59.402;17.866;2022-12-05T03:23:02;103079.56;;;-0.87;82.57
19795;BME280;10057;59.402;17.866;2022-12-05T03:25:38;103073.53;;;-0.86;82.53
19795;BME280;10057;59.402;17.866;2022-12-05T03:28:15;103071.06;;;-0.83;82.28
19795;BME280;10057;59.402;17.866;2022-12-05T03:30:46;103069.28;;;-0.84;82.38
19795;BME280;10057;59.402;17.866;2022-12-05T03:33:14;103071.81;;;-0.86;82.05
19795;BME280;10057;59.402;17.866;2022-12-05T03:38:44;103054.47;;;-0.85;82.60
19795;BME280;10057;59.402;17.866;2022-12-05T03:41:19;103049.91;;;-0.89;82.38
19795;BME280;10057;59.402;17.866;2022-12-05T03:44:00;103044.50;;;-0.94;82.26
19795;BME280;10057;59.402;17.866;2022-12-05T03:46:38;103049.66;;;-0.96;82.54
19795;BME280;10057;59.402;17.866;2022-12-05T03:49:18;103052.03;;;-1.00;82.58
19795;BME280;10057;59.402;17.866;2022-12-05T03:52:11;103044.22;;;-1.00;82.33
19795;BME280;10057;59.402;17.866;2022-12-05T03:54:52;103042.63;;;-0.97;82.68
19795;BME280;10057;59.402;17.866;2022-12-05T03:57:27;103037.50;;;-0.95;82.51
19795;BME280;10057;59.402;17.866;2022-12-05T04:02:51;103038.47;;;-0.93;82.51
19795;BME280;10057;59.402;17.866;2022-12-05T04:07:53;103038.75;;;-0.87;82.17
19795;BME280;10057;59.402;17.866;2022-12-05T04:10:24;103034.56;;;-0.83;82.30
19795;BME280;10057;59.402;17.866;2022-12-05T04:12:55;103025.13;;;-0.81;82.31
19795;BME280;10057;59.402;17.866;2022-12-05T04:15:28;103020.69;;;-0.82;82.49
19795;BME280;10057;59.402;17.866;2022-12-05T04:18:18;103031.28;;;-0.79;82.39
19795;BME280;10057;59.402;17.866;2022-12-05T04:20:47;103034.75;;;-0.79;82.39
19795;BME280;10057;59.402;17.866;2022-12-05T04:23:33;103026.16;;;-0.78;82.61
19795;BME280;10057;59.402;17.866;2022-12-05T04:26:09;103021.00;;;-0.76;82.31
19795;BME280;10057;59.402;17.866;2022-12-05T04:28:47;103025.41;;;-0.75;82.10
19795;BME280;10057;59.402;17.866;2022-12-05T04:31:19;103026.19;;;-0.76;82.38
19795;BME280;10057;59.402;17.866;2022-12-05T04:33:54;103012.28;;;-0.77;82.31
19795;BME280;10057;59.402;17.866;2022-12-05T04:38:52;103012.38;;;-0.75;82.45
19795;BME280;10057;59.402;17.866;2022-12-05T04:41:23;103007.16;;;-0.75;82.51
19795;BME280;10057;59.402;17.866;2022-12-05T04:43:53;103009.75;;;-0.75;82.54
19795;BME280;10057;59.402;17.866;2022-12-05T04:46:22;102999.25;;;-0.77;82.08
19795;BME280;10057;59.402;17.866;2022-12-05T04:48:54;103003.56;;;-0.77;82.45
19795;BME280;10057;59.402;17.866;2022-12-05T04:51:26;102994.78;;;-0.79;82.50
19795;BME280;10057;59.402;17.866;2022-12-05T04:53:59;102987.84;;;-0.79;82.62
19795;BME280;10057;59.402;17.866;2022-12-05T04:56:29;102995.00;;;-0.75;82.42
19795;BME280;10057;59.402;17.866;2022-12-05T04:58:58;102996.72;;;-0.75;82.39
19795;BME280;10057;59.402;17.866;2022-12-05T05:01:45;102998.41;;;-0.76;82.35
19795;BME280;10057;59.402;17.866;2022-12-05T05:04:21;102997.47;;;-0.78;82.40
19795;BME280;10057;59.402;17.866;2022-12-05T05:06:51;102998.34;;;-0.77;82.49
19795;BME280;10057;59.402;17.866;2022-12-05T05:09:18;103001.94;;;-0.75;82.50
19795;BME280;10057;59.402;17.866;2022-12-05T05:11:45;102997.59;;;-0.75;82.69
19795;BME280;10057;59.402;17.866;2022-12-05T05:14:12;103003.72;;;-0.74;82.53
19795;BME280;10057;59.402;17.866;2022-12-05T05:16:41;103002.97;;;-0.72;82.79
19795;BME280;10057;59.402;17.866;2022-12-05T05:19:10;103000.41;;;-0.70;82.47
19795;BME280;10057;59.402;17.866;2022-12-05T05:21:39;102996.97;;;-0.69;82.63
19795;BME280;10057;59.402;17.866;2022-12-05T05:24:08;102991.75;;;-0.69;82.33
19795;BME280;10057;59.402;17.866;2022-12-05T05:26:38;102996.03;;;-0.71;82.19
19795;BME280;10057;59.402;17.866;2022-12-05T05:29:06;102989.00;;;-0.72;82.29
19795;BME280;10057;59.402;17.866;2022-12-05T05:31:33;102987.25;;;-0.73;82.44
19795;BME280;10057;59.402;17.866;2022-12-05T05:34:00;102985.31;;;-0.77;82.11
19795;BME280;10057;59.402;17.866;2022-12-05T05:36:34;102977.38;;;-0.80;82.33
19795;BME280;10057;59.402;17.866;2022-12-05T05:39:03;102973.91;;;-0.79;82.39
19795;BME280;10057;59.402;17.866;2022-12-05T05:41:32;102967.91;;;-0.78;82.51
19795;BME280;10057;59.402;17.866;2022-12-05T05:43:59;102970.50;;;-0.78;82.29
19795;BME280;10057;59.402;17.866;2022-12-05T05:46:28;102968.84;;;-0.76;82.07
19795;BME280;10057;59.402;17.866;2022-12-05T05:48:55;102955.75;;;-0.78;82.14
19795;BME280;10057;59.402;17.866;2022-12-05T05:51:22;102957.41;;;-0.80;82.22
19795;BME280;10057;59.402;17.866;2022-12-05T05:53:54;102958.28;;;-0.79;82.30
19795;BME280;10057;59.402;17.866;2022-12-05T05:56:21;102949.38;;;-0.84;82.13
19795;BME280;10057;59.402;17.866;2022-12-05T05:58:53;102953.00;;;-1.00;82.13
19795;BME280;10057;59.402;17.866;2022-12-05T06:01:20;102946.47;;;-1.10;82.56
19795;BME280;10057;59.402;17.866;2022-12-05T06:03:48;102952.06;;;-1.02;82.08
19795;BME280;10057;59.402;17.866;2022-12-05T06:06:17;102941.81;;;-0.98;82.77
19795;BME280;10057;59.402;17.866;2022-12-05T06:08:45;102955.16;;;-0.91;82.99
19795;BME280;10057;59.402;17.866;2022-12-05T06:11:14;102948.25;;;-0.89;82.90
19795;BME280;10057;59.402;17.866;2022-12-05T06:13:50;102934.44;;;-0.88;82.36
19795;BME280;10057;59.402;17.866;2022-12-05T06:16:17;102935.09;;;-0.92;82.26
19795;BME280;10057;59.402;17.866;2022-12-05T06:18:44;102935.91;;;-0.93;82.42
19795;BME280;10057;59.402;17.866;2022-12-05T06:21:11;102935.91;;;-0.93;82.65
19795;BME280;10057;59.402;17.866;2022-12-05T06:23:41;102937.59;;;-0.96;82.36
19795;BME280;10057;59.402;17.866;2022-12-05T06:26:17;102931.69;;;-0.91;82.68
19795;BME280;10057;59.402;17.866;2022-12-05T06:28:44;102927.41;;;-0.89;82.75
19795;BME280;10057;59.402;17.866;2022-12-05T06:31:16;102928.34;;;-0.89;82.52
19795;BME280;10057;59.402;17.866;2022-12-05T06:33:44;102942.41;;;-0.85;82.63
19795;BME280;10057;59.402;17.866;2022-12-05T06:36:14;102936.47;;;-0.81;82.33
19795;BME280;10057;59.402;17.866;2022-12-05T06:38:41;102927.88;;;-0.79;82.56
19795;BME280;10057;59.402;17.866;2022-12-05T06:41:14;102929.75;;;-0.76;82.69
19795;BME280;10057;59.402;17.866;2022-12-05T06:43:41;102940.25;;;-0.75;82.59
19795;BME280;10057;59.402;17.866;2022-12-05T06:46:10;102932.63;;;-0.70;82.61
19795;BME280;10057;59.402;17.866;2022-12-05T06:48:37;102928.75;;;-0.59;82.49
19795;BME280;10057;59.402;17.866;2022-12-05T06:51:10;102922.94;;;-0.53;82.38
19795;BME280;10057;59.402;17.866;2022-12-05T06:53:37;102927.13;;;-0.57;82.12
19795;BME280;10057;59.402;17.866;2022-12-05T06:56:06;102922.88;;;-0.55;82.37
19795;BME280;10057;59.402;17.866;2022-12-05T06:58:33;102913.66;;;-0.46;82.43
19795;BME280;10057;59.402;17.866;2022-12-05T07:01:00;102920.22;;;-0.35;82.49
19795;BME280;10057;59.402;17.866;2022-12-05T07:03:47;102923.91;;;-0.30;82.30
19795;BME280;10057;59.402;17.866;2022-12-05T07:06:15;102924.84;;;-0.28;82.03
19795;BME280;10057;59.402;17.866;2022-12-05T07:08:42;102920.59;;;-0.26;81.74
19795;BME280;10057;59.402;17.866;2022-12-05T07:11:09;102924.97;;;-0.25;81.98
19795;BME280;10057;59.402;17.866;2022-12-05T07:13:36;102919.75;;;-0.25;81.60
19795;BME280;10057;59.402;17.866;2022-12-05T07:16:02;102926.06;;;-0.41;81.56
19795;BME280;10057;59.402;17.866;2022-12-05T07:18:33;102916.00;;;-0.53;81.77
19795;BME280;10057;59.402;17.866;2022-12-05T07:21:06;102911.59;;;-0.54;81.97
19795;BME280;10057;59.402;17.866;2022-12-05T07:23:39;102919.56;;;-0.51;82.03
19795;BME280;10057;59.402;17.866;2022-12-05T07:26:07;102926.59;;;-0.48;81.98
19795;BME280;10057;59.402;17.866;2022-12-05T07:28:35;102920.50;;;-0.49;81.94
19795;BME280;10057;59.402;17.866;2022-12-05T07:31:13;102913.47;;;-0.51;81.81
19795;BME280;10057;59.402;17.866;2022-12-05T07:33:40;102924.78;;;-0.51;82.06
19795;BME280;10057;59.402;17.866;2022-12-05T07:36:10;102917.75;;;-0.52;82.15
19795;BME280;10057;59.402;17.866;2022-12-05T07:38:37;102915.25;;;-0.50;82.06
19795;BME280;10057;59.402;17.866;2022-12-05T07:41:06;102915.25;;;-0.50;81.93
19795;BME280;10057;59.402;17.866;2022-12-05T07:43:39;102918.78;;;-0.48;81.85
19795;BME280;10057;59.402;17.866;2022-12-05T07:46:07;102912.38;;;-0.56;81.75
19795;BME280;10057;59.402;17.866;2022-12-05T07:48:34;102906.97;;;-0.61;81.82
19795;BME280;10057;59.402;17.866;2022-12-05T07:51:05;102911.28;;;-0.61;82.12
19795;BME280;10057;59.402;17.866;2022-12-05T07:53:32;102900.91;;;-0.60;82.08
19795;BME280;10057;59.402;17.866;2022-12-05T07:56:00;102900.06;;;-0.59;82.35
19795;BME280;10057;59.402;17.866;2022-12-05T07:58:27;102900.22;;;-0.56;82.24
19795;BME280;10057;59.402;17.866;2022-12-05T08:00:55;102899.47;;;-0.53;81.85
19795;BME280;10057;59.402;17.866;2022-12-05T08:03:22;102887.38;;;-0.51;82.21
19795;BME280;10057;59.402;17.866;2022-12-05T08:05:49;102884.78;;;-0.51;82.10
19795;BME280;10057;59.402;17.866;2022-12-05T08:08:16;102881.34;;;-0.50;82.00
19795;BME280;10057;59.402;17.866;2022-12-05T08:10:42;102876.25;;;-0.47;81.89
19795;BME280;10057;59.402;17.866;2022-12-05T08:13:09;102884.84;;;-0.50;81.88
19795;BME280;10057;59.402;17.866;2022-12-05T08:15:36;102878.72;;;-0.50;82.03
19795;BME280;10057;59.402;17.866;2022-12-05T08:18:02;102877.84;;;-0.51;81.99
19795;BME280;10057;59.402;17.866;2022-12-05T08:20:29;102876.69;;;-0.57;81.93
19795;BME280;10057;59.402;17.866;2022-12-05T08:22:56;102874.78;;;-0.61;82.07
19795;BME280;10057;59.402;17.866;2022-12-05T08:25:23;102877.44;;;-0.60;82.21
19795;BME280;10057;59.402;17.866;2022-12-05T08:27:49;102872.41;;;-0.55;82.36
19795;BME280;10057;59.402;17.866;2022-12-05T08:30:16;102869.88;;;-0.54;82.22
19795;BME280;10057;59.402;17.866;2022-12-05T08:32:43;102867.16;;;-0.57;82.18
19795;BME280;10057;59.402;17.866;2022-12-05T08:35:09;102860.91;;;-0.60;82.13
19795;BME280;10057;59.402;17.866;2022-12-05T08:37:36;102865.09;;;-0.64;82.36
19795;BME280;10057;59.402;17.866;2022-12-05T08:40:03;102867.44;;;-0.70;82.27
19795;BME280;10057;59.402;17.866;2022-12-05T08:42:30;102869.78;;;-0.76;82.18
19795;BME280;10057;59.402;17.866;2022-12-05T08:44:57;102865.53;;;-0.74;82.31
19795;BME280;10057;59.402;17.866;2022-12-05T08:47:24;102862.94;;;-0.74;82.29
19795;BME280;10057;59.402;17.866;2022-12-05T08:49:50;102856.63;;;-0.79;82.14
19795;BME280;10057;59.402;17.866;2022-12-05T08:52:17;102856.69;;;-0.78;82.30
19795;BME280;10057;59.402;17.866;2022-12-05T08:54:43;102856.88;;;-0.73;82.59
19795;BME280;10057;59.402;17.866;2022-12-05T08:57:10;102856.31;;;-0.66;82.66
19795;BME280;10057;59.402;17.866;2022-12-05T08:59:37;102855.69;;;-0.60;82.21
19795;BME280;10057;59.402;17.866;2022-12-05T09:02:03;102846.28;;;-0.57;82.20
19795;BME280;10057;59.402;17.866;2022-12-05T09:04:30;102851.63;;;-0.54;82.18
19795;BME280;10057;59.402;17.866;2022-12-05T09:06:57;102850.09;;;-0.49;82.21
19795;BME280;10057;59.402;17.866;2022-12-05T09:09:26;102841.50;;;-0.46;82.45
19795;BME280;10057;59.402;17.866;2022-12-05T09:11:53;102844.38;;;-0.40;82.15
19795;BME280;10057;59.402;17.866;2022-12-05T09:14:19;102840.22;;;-0.35;82.22
19795;BME280;10057;59.402;17.866;2022-12-05T09:16:46;102834.13;;;-0.35;81.84
19795;BME280;10057;59.402;17.866;2022-12-05T09:19:15;102829.03;;;-0.32;82.02
19795;BME280;10057;59.402;17.866;2022-12-05T09:21:43;102829.13;;;-0.31;81.89
19795;BME280;10057;59.402;17.866;2022-12-05T09:24:11;102820.56;;;-0.27;82.14
19795;BME280;10057;59.402;17.866;2022-12-05T09:26:39;102824.06;;;-0.26;81.89
19795;BME280;10057;59.402;17.866;2022-12-05T09:29:06;102823.31;;;-0.23;82.17
19795;BME280;10057;59.402;17.866;2022-12-05T09:31:39;102818.22;;;-0.20;82.25
19795;BME280;10057;59.402;17.866;2022-12-05T09:34:08;102817.31;;;-0.21;82.14
19795;BME280;10057;59.402;17.866;2022-12-05T09:36:35;102823.53;;;-0.17;82.22
19795;BME280;10057;59.402;17.866;2022-12-05T09:39:04;102815.78;;;-0.16;82.04
19795;BME280;10057;59.402;17.866;2022-12-05T09:49:59;102820.88;;;-0.19;81.99
19795;BME280;10057;59.402;17.866;2022-12-05T09:52:31;102822.72;;;-0.16;82.09
19795;BME280;10057;59.402;17.866;2022-12-05T09:55:09;102815.03;;;-0.13;81.99
19795;BME280;10057;59.402;17.866;2022-12-05T09:57:43;102809.00;;;-0.11;81.73
19795;BME280;10057;59.402;17.866;2022-12-05T10:00:11;102815.19;;;-0.09;81.79
19795;BME280;10057;59.402;17.866;2022-12-05T10:05:18;102823.16;;;-0.06;81.83
19795;BME280;10057;59.402;17.866;2022-12-05T10:07:58;102808.41;;;-0.04;81.81
19795;BME280;10057;59.402;17.866;2022-12-05T10:10:34;102804.16;;;-0.02;81.99
19795;BME280;10057;59.402;17.866;2022-12-05T10:15:47;102792.06;;;0.01;81.86
19795;BME280;10057;59.402;17.866;2022-12-05T10:18:39;102792.13;;;0.02;81.75
19795;BME280;10057;59.402;17.866;2022-12-05T10:26:29;102783.56;;;0.06;81.65
19795;BME280;10057;59.402;17.866;2022-12-05T10:29:25;102769.59;;;0.04;81.66
19795;BME280;10057;59.402;17.866;2022-12-05T10:32:01;102772.25;;;0.06;81.71
19795;BME280;10057;59.402;17.866;2022-12-05T10:34:38;102766.19;;;0.07;81.46
19795;BME280;10057;59.402;17.866;2022-12-05T10:37:14;102765.38;;;0.08;81.53
19795;BME280;10057;59.402;17.866;2022-12-05T10:39:43;102760.19;;;0.09;81.67
19795;BME280;10057;59.402;17.866;2022-12-05T10:42:22;102765.50;;;0.11;81.58
19795;BME280;10057;59.402;17.866;2022-12-05T10:45:16;102755.09;;;0.12;81.51
19795;BME280;10057;59.402;17.866;2022-12-05T10:47:43;102750.84;;;0.14;81.65
19795;BME280;10057;59.402;17.866;2022-12-05T10:50:31;102750.88;;;0.16;81.76
19795;BME280;10057;59.402;17.866;2022-12-05T10:53:01;102739.59;;;0.17;81.51
19795;BME280;10057;59.402;17.866;2022-12-05T10:55:33;102736.09;;;0.16;81.41
19795;BME280;10057;59.402;17.866;2022-12-05T11:00:45;102743.94;;;0.16;81.45
19795;BME280;10057;59.402;17.866;2022-12-05T11:03:29;102731.75;;;0.17;81.47
19795;BME280;10057;59.402;17.866;2022-12-05T11:06:00;102726.66;;;0.20;81.42
19795;BME280;10057;59.402;17.866;2022-12-05T11:08:31;102724.03;;;0.20;81.61
19795;BME280;10057;59.402;17.866;2022-12-05T11:11:25;102717.09;;;0.20;81.25
19795;BME280;10057;59.402;17.866;2022-12-05T11:14:32;102713.72;;;0.23;81.73
19795;BME280;10057;59.402;17.866;2022-12-05T11:16:54;102704.22;;;0.25;81.50
19795;BME280;10057;59.402;17.866;2022-12-05T11:21:49;102694.72;;;0.27;81.56
19795;BME280;10057;59.402;17.866;2022-12-05T11:24:32;102693.06;;;0.29;81.60
19795;BME280;10057;59.402;17.866;2022-12-05T11:27:18;102679.16;;;0.30;81.42
19795;BME280;10057;59.402;17.866;2022-12-05T11:29:58;102685.25;;;0.31;81.45
19795;BME280;10057;59.402;17.866;2022-12-05T11:32:32;102681.72;;;0.29;81.31
19795;BME280;10057;59.402;17.866;2022-12-05T11:35:24;102682.50;;;0.26;81.51
19795;BME280;10057;59.402;17.866;2022-12-05T11:37:57;102677.28;;;0.26;81.39
19795;BME280;10057;59.402;17.866;2022-12-05T11:47:09;102658.28;;;0.30;81.47
19795;BME280;10057;59.402;17.866;2022-12-05T11:49:46;102653.03;;;0.30;81.62
19795;BME280;10057;59.402;17.866;2022-12-05T11:54:59;102635.16;;;0.17;81.16
19795;BME280;10057;59.402;17.866;2022-12-05T12:03:24;102630.78;;;0.16;81.53
19795;BME280;10057;59.402;17.866;2022-12-05T12:06:19;102622.72;;;0.10;81.22
19795;BME280;10057;59.402;17.866;2022-12-05T12:14:44;102601.84;;;0.10;81.71
19795;BME280;10057;59.402;17.866;2022-12-05T12:17:34;102604.69;;;0.16;81.46
19795;BME280;10057;59.402;17.866;2022-12-05T12:25:41;102596.91;;;0.17;81.39
19795;BME280;10057;59.402;17.866;2022-12-05T12:33:38;102583.94;;;0.20;81.64
19795;BME280;10057;59.402;17.866;2022-12-05T12:46:56;102567.72;;;0.29;81.57
19795;BME280;10057;59.402;17.866;2022-12-05T12:52:17;102564.25;;;0.30;81.37
19795;BME280;10057;59.402;17.866;2022-12-05T12:55:11;102557.28;;;0.29;81.51
19795;BME280;10057;59.402;17.866;2022-12-05T13:00:55;102544.34;;;0.32;81.36
19795;BME280;10057;59.402;17.866;2022-12-05T13:06:05;102538.16;;;0.30;81.18
19795;BME280;10057;59.402;17.866;2022-12-05T13:11:11;102518.13;;;0.29;81.18
19795;BME280;10057;59.402;17.866;2022-12-05T13:13:45;102517.16;;;0.27;81.22
19795;BME280;10057;59.402;17.866;2022-12-05T13:16:22;102509.25;;;0.24;81.20
19795;BME280;10057;59.402;17.866;2022-12-05T13:18:49;102494.41;;;0.23;81.16
19795;BME280;10057;59.402;17.866;2022-12-05T13:21:17;102497.97;;;0.25;81.30
19795;BME280;10057;59.402;17.866;2022-12-05T13:23:52;102489.19;;;0.23;81.31
19795;BME280;10057;59.402;17.866;2022-12-05T13:26:22;102489.19;;;0.23;81.38
19795;BME280;10057;59.402;17.866;2022-12-05T13:28:52;102483.16;;;0.24;81.20
19795;BME280;10057;59.402;17.866;2022-12-05T13:31:41;102485.78;;;0.26;81.42
19795;BME280;10057;59.402;17.866;2022-12-05T13:37:10;102484.06;;;0.26;81.36
19795;BME280;10057;59.402;17.866;2022-12-05T13:39:56;102473.63;;;0.26;81.25
19795;BME280;10057;59.402;17.866;2022-12-05T13:42:42;102468.41;;;0.26;80.79
19795;BME280;10057;59.402;17.866;2022-12-05T13:45:15;102466.56;;;0.23;81.22
19795;BME280;10057;59.402;17.866;2022-12-05T13:48:19;102455.34;;;0.26;80.96
19795;BME280;10057;59.402;17.866;2022-12-05T13:53:38;102443.28;;;0.30;81.15
19795;BME280;10057;59.402;17.866;2022-12-05T13:56:25;102442.41;;;0.29;81.32
19795;BME280;10057;59.402;17.866;2022-12-05T13:58:54;102433.69;;;0.29;81.14
19795;BME280;10057;59.402;17.866;2022-12-05T14:03:57;102439.03;;;0.33;80.96
19795;BME280;10057;59.402;17.866;2022-12-05T14:09:01;102425.22;;;0.37;80.97
19795;BME280;10057;59.402;17.866;2022-12-05T14:11:28;102414.78;;;0.37;80.99
19795;BME280;10057;59.402;17.866;2022-12-05T14:13:55;102416.59;;;0.38;81.14
19795;BME280;10057;59.402;17.866;2022-12-05T14:19:32;102414.78;;;0.37;80.79
19795;BME280;10057;59.402;17.866;2022-12-05T14:33:24;102386.72;;;0.30;80.66
19795;BME280;10057;59.402;17.866;2022-12-05T14:35:52;102388.50;;;0.31;80.92
19795;BME280;10057;59.402;17.866;2022-12-05T14:40:48;102387.69;;;0.34;80.68
19795;BME280;10057;59.402;17.866;2022-12-05T14:43:32;102377.25;;;0.34;80.86
19795;BME280;10057;59.402;17.866;2022-12-05T14:48:33;102373.81;;;0.35;80.61
19795;BME280;10057;59.402;17.866;2022-12-05T14:51:02;102374.63;;;0.34;80.61
19795;BME280;10057;59.402;17.866;2022-12-05T14:53:48;102374.72;;;0.35;80.65
19795;BME280;10057;59.402;17.866;2022-12-05T14:56:20;102364.19;;;0.34;80.60
19795;BME280;10057;59.402;17.866;2022-12-05T14:58:58;102362.50;;;0.34;80.71
19795;BME280;10057;59.402;17.866;2022-12-05T15:06:48;102363.41;;;0.36;80.67
19795;BME280;10057;59.402;17.866;2022-12-05T15:09:30;102360.88;;;0.38;80.53
19795;BME280;10057;59.402;17.866;2022-12-05T15:12:09;102357.41;;;0.39;80.48
19795;BME280;10057;59.402;17.866;2022-12-05T15:14:44;102350.41;;;0.38;80.55
19795;BME280;10057;59.402;17.866;2022-12-05T15:17:15;102349.56;;;0.39;80.63
19795;BME280;10057;59.402;17.866;2022-12-05T15:19:53;102343.47;;;0.38;80.55
19795;BME280;10057;59.402;17.866;2022-12-05T15:22:25;102347.84;;;0.39;80.27
19795;BME280;10057;59.402;17.866;2022-12-05T15:24:53;102344.28;;;0.37;80.35